EST,Max TemperatureF,Mean TemperatureF,Min TemperatureF,Max Dew PointF,MeanDew PointF,Min DewpointF,Max Humidity, Mean Humidity, Min Humidity, Max Sea Level PressureIn, Mean Sea Level PressureIn, Min Sea Level PressureIn, Max VisibilityMiles, Mean VisibilityMiles, Min VisibilityMiles, Max Wind SpeedMPH, Mean Wind SpeedMPH, Max Gust SpeedMPH,PrecipitationIn, CloudCover, Events, WindDirDegrees
2011-12-1,43,37,30,36,31,26,92,76,60,30.30,30.25,30.14,10,10,10,20,9,25,0.00,4,,233
2011-12-2,39,35,30,34,30,25,96,83,70,30.56,30.34,30.21,10,7,0,14,6,17,0.18,7,Fog-Rain-Snow,270
2011-12-3,45,36,27,29,27,24,92,69,45,30.59,30.49,30.33,10,10,8,10,7,14,0.00,5,,166
2011-12-4,60,50,39,46,36,29,93,66,38,30.32,30.20,30.10,10,10,9,25,11,32,0.04,7,Rain,200
2011-12-5,52,46,39,48,44,37,96,91,86,30.23,30.17,30.11,10,6,2,16,8,21,0.74,8,Rain,254
2011-12-6,39,38,36,37,36,34,100,93,85,30.13,30.08,29.99,10,5,0,15,7,20,0.28,8,Rain,36
2011-12-7,37,33,29,36,30,20,96,83,69,30.02,29.93,29.83,10,7,0,17,6,22,0.01,8,Fog-Rain,331
2011-12-8,39,35,30,25,23,19,69,59,48,30.18,30.08,29.88,10,10,9,30,16,40,T,6,Snow,249
2011-12-9,38,33,28,31,28,19,92,78,64,30.29,30.17,30.09,10,4,0,23,12,31,0.18,8,Fog-Rain-Snow,235
2011-12-10,28,24,20,17,13,11,73,62,50,30.50,30.41,30.29,10,10,10,21,10,25,0.00,2,,274
2011-12-11,36,30,23,20,15,10,75,55,35,30.57,30.51,30.46,10,10,10,24,11,32,T,3,,211
2011-12-12,40,34,27,26,18,11,69,57,44,30.50,30.46,30.41,10,10,10,16,8,20,0.00,2,,210
2011-12-13,44,35,25,35,28,18,85,77,69,30.46,30.43,30.37,10,9,6,14,6,17,0.00,5,,208
2011-12-14,50,43,36,45,35,28,83,68,53,30.37,30.20,29.93,10,9,4,24,8,30,0.10,7,Rain,173
2011-12-15,57,49,40,54,49,35,93,82,71,29.91,29.66,29.54,10,5,0,33,21,46,0.91,8,Fog-Rain,225
2011-12-16,41,37,33,36,27,23,82,71,59,30.21,30.11,29.80,10,10,3,35,16,45,0.03,7,Rain-Snow-Thunderstorm,266
2011-12-17,33,26,19,27,17,10,85,70,55,30.29,30.23,30.15,10,8,1,17,8,22,T,7,Snow,351
2011-12-18,34,26,17,28,21,12,82,73,63,30.24,30.19,30.07,10,9,2,20,9,24,T,6,Snow,186
2011-12-19,45,39,32,38,32,24,82,70,57,30.06,29.93,29.83,10,10,7,30,19,40,T,7,,246
2011-12-20,38,34,29,31,25,19,82,67,52,30.24,30.11,29.95,10,10,10,17,6,23,0.00,7,,81
2011-12-21,56,47,37,52,42,32,93,85,76,29.94,29.73,29.52,10,8,2,28,10,41,0.39,8,Rain,183
2011-12-22,44,41,37,40,37,34,92,84,76,30.08,30.01,29.87,10,8,3,17,7,23,0.14,8,Rain,246
2011-12-23,37,30,23,34,25,14,92,75,58,30.33,30.15,29.96,10,7,1,20,8,26,0.03,7,Rain-Snow,335
2011-12-24,34,27,20,24,16,12,84,66,47,30.51,30.38,30.22,10,10,10,16,4,20,0.00,4,,116
2011-12-25,45,39,33,33,28,25,82,68,53,30.20,30.01,29.86,10,10,5,32,17,40,0.03,7,Rain-Snow,236
2011-12-26,39,35,31,31,28,25,82,71,59,30.30,30.16,30.00,10,10,10,22,12,31,0.00,6,,248
2011-12-27,40,36,31,34,30,24,96,80,64,30.01,29.53,29.30,10,6,2,18,7,23,0.34,8,Rain-Snow,181
2011-12-28,35,26,17,32,17,9,96,77,57,30.03,29.75,29.39,10,6,1,25,15,37,0.03,7,Snow,286
2011-12-29,35,26,16,31,21,8,92,78,63,30.02,29.87,29.75,10,7,2,10,6,13,0.04,7,Snow,129
2011-12-30,46,40,34,37,35,32,86,76,65,29.87,29.79,29.70,10,10,9,15,8,20,0.10,8,Rain,183
2011-12-31,45,42,38,40,38,33,93,82,70,30.08,29.87,29.68,10,6,0,18,10,24,0.05,8,Fog-Rain,238